Time;durP1;ratioP1;P1;durP2;ratioP2;P2;SDS_P1;SDS_P2;PMS_P1;PMS_P2;Temp;Humidity;BMP_temperature;BMP_pressure;BME280_temperature;BME280_humidity;BME280_pressure;Samples;Min_cycle;Max_cycle;Signal;HPM_P1;HPM_P2
2021/05/31 00:00:07;;;;;;;7.07;3.15;;;13.90;99.90;;;;;;4971566;28;20031;-69
2021/05/31 00:02:33;;;;;;;8.00;3.42;;;13.80;99.90;;;;;;4973145;28;20046;-68
2021/05/31 00:04:58;;;;;;;9.50;3.40;;;13.80;99.90;;;;;;4971000;28;20035;-68
2021/05/31 00:07:24;;;;;;;7.72;3.45;;;13.70;99.90;;;;;;4973097;28;20130;-68
2021/05/31 00:09:55;;;;;;;8.65;3.67;;;13.70;99.90;;;;;;4972816;28;20047;-69
2021/05/31 00:12:21;;;;;;;9.27;3.38;;;13.80;99.90;;;;;;4973633;28;20042;-68
2021/05/31 00:14:47;;;;;;;11.88;3.65;;;13.70;99.90;;;;;;4972799;28;20811;-68
2021/05/31 00:17:13;;;;;;;7.15;3.42;;;13.60;99.90;;;;;;4975573;28;20141;-68
2021/05/31 00:19:40;;;;;;;9.13;4.03;;;13.60;99.90;;;;;;4971915;28;20039;-69
2021/05/31 00:22:06;;;;;;;11.77;4.15;;;13.50;99.90;;;;;;4972236;28;20049;-68
2021/05/31 00:24:32;;;;;;;10.38;3.60;;;13.50;99.90;;;;;;4971629;28;20037;-67
2021/05/31 00:26:58;;;;;;;9.60;3.85;;;13.50;99.90;;;;;;4973352;28;20057;-68
2021/05/31 00:29:24;;;;;;;9.75;3.80;;;13.40;99.90;;;;;;4973365;28;20035;-68
2021/05/31 00:31:58;;;;;;;13.15;4.63;;;13.30;99.90;;;;;;4971966;28;20062;-68
2021/05/31 00:34:24;;;;;;;11.38;3.85;;;13.30;99.90;;;;;;4971882;28;20038;-68
2021/05/31 00:36:50;;;;;;;8.35;3.53;;;13.30;99.90;;;;;;4970428;28;20030;-68
2021/05/31 00:39:18;;;;;;;6.80;3.97;;;13.30;99.90;;;;;;4970917;28;20035;-68
2021/05/31 00:41:47;;;;;;;11.68;4.18;;;13.20;99.90;;;;;;4974940;28;20150;-68
2021/05/31 00:44:12;;;;;;;15.55;5.00;;;13.20;99.90;;;;;;4975391;28;20372;-68
2021/05/31 00:46:38;;;;;;;8.73;3.63;;;13.20;99.90;;;;;;4977003;28;20139;-69
2021/05/31 00:49:04;;;;;;;10.80;4.15;;;13.10;99.90;;;;;;4977240;28;20038;-68
2021/05/31 00:51:30;;;;;;;11.52;4.43;;;13.10;99.90;;;;;;4974251;28;20066;-68
2021/05/31 00:53:56;;;;;;;10.98;5.07;;;13.10;99.90;;;;;;4979303;28;20125;-68
2021/05/31 00:56:23;;;;;;;9.52;4.07;;;13.10;99.90;;;;;;4978277;28;20045;-68
2021/05/31 00:58:48;;;;;;;10.00;4.20;;;13.00;99.90;;;;;;4980221;28;20046;-68
2021/05/31 01:01:17;;;;;;;10.40;4.15;;;13.00;99.90;;;;;;4983103;28;20030;-69
2021/05/31 01:03:43;;;;;;;10.68;4.05;;;12.90;99.90;;;;;;4979016;28;20054;-68
2021/05/31 01:06:11;;;;;;;8.57;4.07;;;12.90;99.90;;;;;;4972317;28;20093;-68
2021/05/31 01:08:52;;;;;;;8.93;3.75;;;12.90;99.90;;;;;;4976290;28;20028;-68
2021/05/31 01:11:32;;;;;;;9.85;4.78;;;12.80;99.90;;;;;;4971950;28;20035;-68
2021/05/31 01:14:08;;;;;;;15.73;5.03;;;12.80;99.90;;;;;;4976672;28;20042;-68
2021/05/31 01:16:43;;;;;;;14.68;4.47;;;12.70;99.90;;;;;;4975543;28;20043;-68
2021/05/31 01:19:40;;;;;;;12.98;5.18;;;12.70;99.90;;;;;;4975897;28;20102;-68
2021/05/31 01:22:08;;;;;;;9.88;4.28;;;12.60;99.90;;;;;;4974505;28;20089;-68
2021/05/31 01:24:49;;;;;;;12.10;4.55;;;12.60;99.90;;;;;;4990863;28;20031;-68
2021/05/31 01:27:35;;;;;;;9.65;4.45;;;12.60;99.90;;;;;;4981804;28;20043;-69
2021/05/31 01:30:11;;;;;;;14.90;4.63;;;12.50;99.90;;;;;;4984103;28;20047;-68
2021/05/31 01:32:43;;;;;;;11.48;4.60;;;12.50;99.90;;;;;;4970882;28;20529;-68
2021/05/31 01:35:17;;;;;;;11.57;4.47;;;12.50;99.90;;;;;;4976586;28;20085;-69
2021/05/31 01:37:44;;;;;;;9.38;4.55;;;12.50;99.90;;;;;;4972190;28;20041;-68
2021/05/31 01:40:12;;;;;;;9.30;4.40;;;12.60;99.90;;;;;;4975804;28;20070;-68
2021/05/31 01:42:39;;;;;;;9.35;4.40;;;12.50;99.90;;;;;;4968900;28;20039;-68
2021/05/31 01:45:05;;;;;;;12.43;4.47;;;12.40;99.90;;;;;;4976345;28;20034;-68
2021/05/31 01:47:34;;;;;;;16.25;4.75;;;12.50;99.90;;;;;;4976115;28;20086;-68
2021/05/31 01:50:02;;;;;;;18.90;4.80;;;12.50;99.90;;;;;;4973463;28;20126;-68
2021/05/31 01:52:28;;;;;;;13.27;4.68;;;12.50;99.90;;;;;;4975498;28;20034;-68
2021/05/31 01:54:58;;;;;;;13.85;5.18;;;12.50;99.90;;;;;;4974883;28;20038;-69
2021/05/31 01:57:24;;;;;;;8.30;5.20;;;12.30;99.90;;;;;;4974558;28;20038;-67
2021/05/31 01:59:51;;;;;;;13.00;4.85;;;12.30;99.90;;;;;;4989807;28;20041;-68
2021/05/31 02:02:17;;;;;;;13.32;5.05;;;12.30;99.90;;;;;;4975986;28;20034;-68
2021/05/31 02:04:44;;;;;;;28.65;5.88;;;12.20;99.90;;;;;;4981660;28;20034;-68
2021/05/31 02:07:09;;;;;;;16.92;5.10;;;12.20;99.90;;;;;;4975281;28;20035;-68
2021/05/31 02:09:35;;;;;;;15.48;5.78;;;12.20;99.90;;;;;;4981478;28;20041;-68
2021/05/31 02:12:04;;;;;;;18.98;5.72;;;12.20;99.90;;;;;;4991615;28;20030;-68
2021/05/31 02:14:38;;;;;;;12.23;5.28;;;12.20;99.90;;;;;;4975948;28;20150;-69
2021/05/31 02:17:09;;;;;;;12.85;5.45;;;12.20;99.90;;;;;;4989473;28;20618;-68
2021/05/31 02:19:37;;;;;;;13.77;5.22;;;12.20;99.90;;;;;;4971378;28;20049;-68
2021/05/31 02:22:05;;;;;;;22.35;6.13;;;12.10;99.90;;;;;;4974915;28;20391;-68
2021/05/31 02:24:34;;;;;;;14.00;5.65;;;12.10;99.90;;;;;;4983024;28;20499;-67
2021/05/31 02:27:00;;;;;;;15.48;5.70;;;12.10;99.90;;;;;;4970545;28;20058;-68
2021/05/31 02:29:26;;;;;;;12.55;5.78;;;12.10;99.90;;;;;;4970013;28;20030;-68
2021/05/31 02:31:53;;;;;;;16.42;5.50;;;12.10;99.90;;;;;;4970380;28;20086;-67
2021/05/31 02:34:19;;;;;;;12.20;5.35;;;12.10;99.90;;;;;;4971242;28;20023;-68
2021/05/31 02:36:47;;;;;;;13.93;6.65;;;12.00;99.90;;;;;;4969315;28;20111;-69
2021/05/31 02:39:13;;;;;;;13.60;5.88;;;12.00;99.90;;;;;;4970130;28;20081;-68
2021/05/31 02:41:39;;;;;;;9.30;5.22;;;12.00;99.90;;;;;;4968710;28;20058;-68
2021/05/31 02:44:04;;;;;;;18.25;6.75;;;12.00;99.90;;;;;;4963520;28;20031;-66
2021/05/31 02:46:30;;;;;;;15.25;5.75;;;12.00;99.90;;;;;;4966972;28;20059;-68
2021/05/31 02:48:55;;;;;;;12.75;5.68;;;11.90;99.90;;;;;;4984577;28;20043;-68
2021/05/31 02:51:21;;;;;;;13.80;5.70;;;12.00;99.90;;;;;;4986076;28;20027;-67
2021/05/31 02:53:47;;;;;;;16.13;5.60;;;11.90;99.90;;;;;;4985133;28;20062;-68
2021/05/31 02:56:12;;;;;;;13.32;6.40;;;11.90;99.90;;;;;;4975726;28;20039;-68
2021/05/31 02:58:38;;;;;;;16.73;6.45;;;11.80;99.90;;;;;;4970067;28;20077;-68
2021/05/31 03:01:04;;;;;;;14.93;6.15;;;11.80;99.90;;;;;;4961932;28;20063;-68
2021/05/31 03:03:29;;;;;;;11.43;5.90;;;11.70;99.90;;;;;;4969535;28;20065;-66
2021/05/31 03:05:57;;;;;;;12.10;6.35;;;11.70;99.90;;;;;;4968954;28;20071;-68
2021/05/31 03:08:23;;;;;;;15.93;6.32;;;11.60;99.90;;;;;;4969402;28;20050;-66
2021/05/31 03:10:48;;;;;;;11.77;5.90;;;11.70;99.90;;;;;;4970058;28;20694;-68
2021/05/31 03:13:14;;;;;;;15.38;5.85;;;11.60;99.90;;;;;;4984364;28;20092;-68
2021/05/31 03:15:39;;;;;;;17.85;6.40;;;11.60;99.90;;;;;;4966477;28;20094;-68
2021/05/31 03:18:07;;;;;;;17.85;6.32;;;11.60;99.90;;;;;;4966445;28;20138;-66
2021/05/31 03:20:32;;;;;;;16.05;6.57;;;11.60;99.90;;;;;;4970072;28;20376;-68
2021/05/31 03:23:00;;;;;;;16.27;6.35;;;11.50;99.90;;;;;;4970482;28;20041;-68
2021/05/31 03:25:26;;;;;;;18.10;6.65;;;11.50;99.90;;;;;;4970077;28;20043;-67
2021/05/31 03:27:53;;;;;;;13.10;6.78;;;11.40;99.90;;;;;;4969292;28;20035;-68
2021/05/31 03:30:19;;;;;;;18.95;6.68;;;11.50;99.90;;;;;;4969115;28;20483;-66
2021/05/31 03:32:45;;;;;;;16.35;6.60;;;11.50;99.90;;;;;;4969005;28;20057;-67
2021/05/31 03:35:13;;;;;;;17.88;6.90;;;11.50;99.90;;;;;;4968590;28;20031;-67
2021/05/31 03:37:40;;;;;;;18.33;7.10;;;11.50;99.90;;;;;;4973163;28;20054;-68
2021/05/31 03:40:07;;;;;;;18.70;8.18;;;11.40;99.90;;;;;;4968791;28;20137;-67
2021/05/31 03:42:33;;;;;;;16.65;6.90;;;11.40;99.90;;;;;;4968969;28;20042;-68
2021/05/31 03:44:58;;;;;;;13.70;6.28;;;11.40;99.90;;;;;;4969434;28;20050;-67
2021/05/31 03:47:24;;;;;;;16.58;6.90;;;11.40;99.90;;;;;;4967496;28;20039;-67
2021/05/31 03:49:50;;;;;;;16.83;7.20;;;11.40;99.90;;;;;;4968258;28;20036;-68
2021/05/31 03:52:15;;;;;;;18.58;7.15;;;11.40;99.90;;;;;;4968921;28;20129;-68
2021/05/31 03:54:41;;;;;;;15.90;7.05;;;11.40;99.90;;;;;;4967750;28;20162;-68
2021/05/31 03:57:07;;;;;;;22.20;7.35;;;11.40;99.90;;;;;;4967140;28;20049;-66
2021/05/31 03:59:33;;;;;;;11.55;6.22;;;11.40;99.90;;;;;;4968834;28;20039;-68
2021/05/31 04:02:00;;;;;;;13.18;6.45;;;11.40;99.90;;;;;;4965246;28;20023;-68
2021/05/31 04:04:26;;;;;;;14.05;6.38;;;11.40;99.90;;;;;;4968940;28;20038;-68
2021/05/31 04:07:21;;;;;;;14.45;6.43;;;11.50;99.90;;;;;;4973820;28;20046;-68
2021/05/31 04:12:21;;;;;;;13.07;6.72;;;11.50;99.90;;;;;;4972373;28;20038;-68
2021/05/31 04:14:46;;;;;;;19.35;6.03;;;11.50;99.90;;;;;;4969795;28;20387;-68
2021/05/31 04:17:12;;;;;;;19.50;7.55;;;11.50;99.90;;;;;;4972864;28;20475;-68
2021/05/31 04:19:38;;;;;;;20.80;7.43;;;11.50;99.90;;;;;;4972115;28;20549;-67
2021/05/31 04:22:04;;;;;;;18.50;7.07;;;11.50;99.90;;;;;;4973398;28;20031;-68
2021/05/31 04:24:29;;;;;;;14.05;6.80;;;11.50;99.90;;;;;;4972299;28;20043;-68
2021/05/31 04:26:55;;;;;;;17.70;6.82;;;11.50;99.90;;;;;;4972788;28;20043;-67
2021/05/31 04:29:21;;;;;;;16.70;7.43;;;11.60;99.90;;;;;;4971982;28;20121;-68
2021/05/31 04:31:46;;;;;;;22.83;7.95;;;11.60;99.90;;;;;;4986995;28;20042;-68
2021/05/31 04:34:12;;;;;;;18.83;7.20;;;11.70;99.90;;;;;;4971125;28;20039;-68
2021/05/31 04:36:39;;;;;;;15.82;7.30;;;11.70;99.90;;;;;;4968984;28;20627;-67
2021/05/31 04:39:06;;;;;;;18.35;7.60;;;11.70;99.90;;;;;;4971718;28;20101;-68
2021/05/31 04:41:34;;;;;;;14.52;7.07;;;11.80;99.90;;;;;;4970404;28;20031;-68
2021/05/31 04:43:59;;;;;;;13.18;7.20;;;11.80;99.90;;;;;;4972790;28;20082;-68
2021/05/31 04:46:25;;;;;;;16.52;8.50;;;11.80;99.90;;;;;;4966911;28;20050;-66
2021/05/31 04:48:50;;;;;;;16.67;7.32;;;11.80;99.90;;;;;;4971952;28;20027;-68
2021/05/31 04:51:16;;;;;;;14.32;6.50;;;11.90;99.90;;;;;;4985280;28;20423;-68
2021/05/31 04:53:41;;;;;;;22.10;7.18;;;11.90;99.90;;;;;;4971930;28;20039;-68
2021/05/31 04:56:10;;;;;;;24.02;7.07;;;12.00;99.90;;;;;;4970364;28;20035;-68
2021/05/31 04:58:35;;;;;;;18.27;7.40;;;12.10;99.90;;;;;;4970678;28;20069;-68
2021/05/31 05:01:01;;;;;;;19.08;6.72;;;12.10;99.90;;;;;;4969653;28;20488;-68
2021/05/31 05:03:27;;;;;;;15.13;6.90;;;12.10;99.90;;;;;;4968226;28;20466;-68
2021/05/31 05:05:52;;;;;;;19.88;7.88;;;12.20;99.90;;;;;;4978514;28;20042;-67
2021/05/31 05:08:19;;;;;;;17.83;7.60;;;12.20;99.90;;;;;;4967802;28;20483;-67
2021/05/31 05:10:45;;;;;;;14.57;7.05;;;12.30;99.90;;;;;;4967550;28;20479;-68
2021/05/31 05:13:11;;;;;;;15.32;6.55;;;12.30;99.90;;;;;;4970301;28;20045;-67
2021/05/31 05:15:37;;;;;;;21.35;7.05;;;12.40;99.90;;;;;;4968570;28;20288;-68
2021/05/31 05:18:03;;;;;;;17.75;6.82;;;12.40;99.90;;;;;;4971580;28;20219;-68
2021/05/31 05:20:30;;;;;;;13.98;6.38;;;12.50;99.90;;;;;;4969236;28;20511;-68
2021/05/31 05:22:56;;;;;;;16.05;7.10;;;12.60;99.90;;;;;;4972279;28;20062;-68
2021/05/31 05:25:23;;;;;;;13.60;6.55;;;12.70;99.90;;;;;;4972315;28;20092;-68
2021/05/31 05:27:50;;;;;;;18.02;6.90;;;12.80;99.90;;;;;;4971200;28;20034;-68
2021/05/31 05:30:19;;;;;;;18.58;6.60;;;12.80;99.90;;;;;;4965959;28;20042;-67
2021/05/31 05:32:49;;;;;;;15.60;6.35;;;13.00;99.90;;;;;;4969508;28;20035;-68
2021/05/31 05:35:25;;;;;;;11.55;5.97;;;13.50;99.90;;;;;;4969087;28;20089;-68
2021/05/31 05:48:30;;;;;;;10.50;4.68;;;15.30;99.90;;;;;;4969432;28;20086;-68
2021/05/31 05:51:07;;;;;;;12.20;6.15;;;15.70;99.90;;;;;;4965798;28;20046;-67
2021/05/31 05:53:34;;;;;;;16.58;5.25;;;15.90;99.90;;;;;;4972052;28;20053;-68
2021/05/31 05:56:01;;;;;;;17.48;5.43;;;16.20;99.90;;;;;;4969076;28;20030;-68
2021/05/31 05:58:29;;;;;;;14.35;5.93;;;16.50;99.90;;;;;;4963428;28;20121;-69
2021/05/31 06:00:56;;;;;;;14.60;6.15;;;16.60;99.90;;;;;;4962668;28;20043;-67
2021/05/31 06:03:22;;;;;;;12.45;4.72;;;16.90;99.90;;;;;;4966549;28;20116;-68
2021/05/31 06:05:47;;;;;;;11.38;4.75;;;17.10;99.90;;;;;;4968970;28;20118;-69
2021/05/31 06:08:14;;;;;;;17.65;5.05;;;17.50;99.90;;;;;;4966891;28;20451;-68
2021/05/31 06:10:40;;;;;;;12.57;4.90;;;17.80;99.90;;;;;;4974071;28;20042;-68
2021/05/31 06:13:05;;;;;;;10.32;3.95;;;18.40;99.90;;;;;;4966782;28;20050;-70
2021/05/31 06:15:31;;;;;;;10.95;4.15;;;19.10;99.90;;;;;;4966459;28;20181;-70
2021/05/31 06:17:57;;;;;;;13.40;4.80;;;20.00;99.90;;;;;;4974135;28;20069;-70
2021/05/31 06:20:22;;;;;;;5.95;3.40;;;20.90;98.30;;;;;;4968413;28;20039;-70
2021/05/31 06:22:48;;;;;;;6.70;3.65;;;22.00;95.90;;;;;;4966572;28;20061;-70
2021/05/31 06:25:14;;;;;;;8.55;4.07;;;23.00;93.70;;;;;;4969236;28;20388;-70
2021/05/31 06:27:39;;;;;;;10.20;4.15;;;23.90;86.10;;;;;;4967717;28;20053;-70
2021/05/31 06:30:06;;;;;;;9.20;3.60;;;24.70;78.70;;;;;;4968829;28;20206;-70
2021/05/31 06:32:32;;;;;;;7.68;4.40;;;25.80;74.70;;;;;;4971105;28;20322;-69
2021/05/31 06:34:58;;;;;;;8.20;3.78;;;26.50;68.50;;;;;;4970070;28;20030;-72
2021/05/31 06:37:24;;;;;;;9.65;4.63;;;27.40;64.40;;;;;;4972557;28;20388;-71
2021/05/31 06:39:50;;;;;;;13.27;5.22;;;28.00;60.20;;;;;;4968661;28;20129;-69
2021/05/31 06:42:16;;;;;;;14.77;5.07;;;28.60;57.50;;;;;;4970352;28;20054;-71
2021/05/31 06:44:42;;;;;;;9.30;5.80;;;29.20;55.80;;;;;;4968111;28;20027;-69
2021/05/31 06:47:08;;;;;;;10.10;5.35;;;29.90;50.80;;;;;;4970009;28;20399;-69
2021/05/31 06:49:37;;;;;;;7.88;4.53;;;29.40;50.90;;;;;;4961636;28;20504;-69
2021/05/31 06:52:04;;;;;;;;;;;29.90;51.30;;;;;;4977187;28;20129;-70
2021/05/31 06:54:31;;;;;;;7.72;4.57;;;30.30;50.40;;;;;;4968249;28;19920;-70
2021/05/31 06:56:57;;;;;;;11.98;5.13;;;29.90;48.90;;;;;;4967124;28;20424;-70
2021/05/31 06:59:23;;;;;;;8.55;4.43;;;30.30;48.70;;;;;;4963339;28;20039;-71
2021/05/31 07:01:48;;;;;;;7.85;4.75;;;30.10;49.20;;;;;;4963850;28;20123;-69
2021/05/31 07:04:15;;;;;;;13.43;4.55;;;30.90;47.30;;;;;;4964042;28;20054;-69
2021/05/31 07:06:41;;;;;;;11.63;5.32;;;30.90;47.10;;;;;;4963027;28;20488;-69
2021/05/31 07:09:07;;;;;;;15.48;5.55;;;30.70;49.50;;;;;;4966680;28;20043;-70
2021/05/31 07:11:33;;;;;;;9.52;5.30;;;31.30;46.90;;;;;;4966996;28;20042;-70
2021/05/31 07:14:01;;;;;;;8.20;4.72;;;31.20;48.30;;;;;;4966918;28;20034;-70
2021/05/31 07:16:29;;;;;;;12.88;4.70;;;31.70;45.50;;;;;;4970172;28;20514;-70
2021/05/31 07:18:55;;;;;;;10.00;5.17;;;31.10;46.90;;;;;;4963116;28;20380;-69
2021/05/31 07:21:21;;;;;;;7.70;4.80;;;31.40;47.80;;;;;;4969076;28;20043;-70
2021/05/31 07:23:46;;;;;;;9.25;4.70;;;32.00;45.90;;;;;;4964351;28;20035;-69
2021/05/31 07:26:12;;;;;;;10.90;5.55;;;32.20;45.30;;;;;;4967331;28;20074;-70
2021/05/31 07:28:37;;;;;;;12.38;5.22;;;32.70;44.40;;;;;;4964722;28;20062;-71
2021/05/31 07:31:03;;;;;;;11.20;5.72;;;32.30;45.60;;;;;;4965161;28;20030;-70
2021/05/31 07:33:29;;;;;;;11.18;5.63;;;32.60;44.30;;;;;;4965149;28;20054;-71
2021/05/31 07:35:56;;;;;;;10.02;4.18;;;32.60;43.40;;;;;;4968359;28;20546;-70
2021/05/31 07:38:22;;;;;;;9.60;4.97;;;33.30;43.90;;;;;;4961561;28;20175;-71
2021/05/31 07:40:48;;;;;;;11.07;5.22;;;33.30;42.90;;;;;;4967140;28;20515;-69
2021/05/31 07:43:13;;;;;;;7.93;4.95;;;32.80;43.10;;;;;;4967752;28;20170;-70
2021/05/31 07:45:40;;;;;;;9.82;4.55;;;33.20;44.30;;;;;;4969539;28;20046;-70
2021/05/31 07:48:07;;;;;;;10.77;5.50;;;33.20;43.50;;;;;;4973164;28;20082;-71
2021/05/31 07:50:32;;;;;;;8.80;4.72;;;33.00;43.30;;;;;;4968966;28;20034;-70
2021/05/31 07:52:58;;;;;;;9.27;4.97;;;33.00;43.70;;;;;;4969656;28;20049;-70
2021/05/31 07:55:23;;;;;;;8.82;5.60;;;32.80;43.80;;;;;;4967670;28;20108;-70
2021/05/31 07:57:51;;;;;;;8.93;4.68;;;32.50;42.70;;;;;;4964857;28;20042;-70
2021/05/31 08:00:19;;;;;;;8.25;5.00;;;32.70;43.90;;;;;;4962696;28;20066;-71
2021/05/31 08:02:49;;;;;;;10.00;5.03;;;33.10;43.60;;;;;;4961685;28;20035;-71
2021/05/31 08:05:16;;;;;;;8.30;4.72;;;32.80;42.30;;;;;;4974690;28;20038;-71
2021/05/31 08:07:45;;;;;;;10.70;4.82;;;33.20;42.20;;;;;;4963444;28;20038;-69
2021/05/31 08:10:12;;;;;;;8.60;5.00;;;33.60;41.70;;;;;;4964337;28;20499;-69
2021/05/31 08:12:38;;;;;;;6.45;4.30;;;33.60;41.40;;;;;;4974818;28;20122;-70
2021/05/31 08:15:06;;;;;;;13.23;5.57;;;33.20;42.70;;;;;;4969127;28;20034;-70
2021/05/31 08:17:31;;;;;;;8.20;4.20;;;32.90;41.70;;;;;;4967256;28;20439;-70
2021/05/31 08:19:57;;;;;;;14.43;4.45;;;33.20;42.50;;;;;;4964530;28;20041;-69
2021/05/31 08:22:23;;;;;;;9.00;4.95;;;33.60;42.70;;;;;;4964738;28;20500;-70
2021/05/31 08:24:48;;;;;;;15.45;5.00;;;33.00;42.00;;;;;;4966392;28;20127;-72
2021/05/31 08:27:14;;;;;;;9.90;4.82;;;33.40;42.40;;;;;;4971863;28;20118;-71
2021/05/31 08:29:40;;;;;;;9.45;3.88;;;33.30;42.30;;;;;;4969142;28;20123;-71
2021/05/31 08:32:06;;;;;;;13.75;4.18;;;33.20;42.50;;;;;;4970262;28;20418;-71
2021/05/31 08:34:31;;;;;;;8.32;3.65;;;32.80;43.10;;;;;;4961061;28;20050;-70
2021/05/31 08:36:57;;;;;;;9.63;4.05;;;32.60;42.20;;;;;;4967022;28;20089;-70
2021/05/31 08:39:23;;;;;;;10.65;4.97;;;32.40;42.40;;;;;;4972727;28;20033;-70
2021/05/31 08:41:48;;;;;;;7.10;3.83;;;32.00;42.20;;;;;;4967271;28;20031;-69
2021/05/31 08:44:14;;;;;;;7.68;3.90;;;31.70;41.60;;;;;;4966565;28;20027;-70
2021/05/31 08:46:40;;;;;;;9.07;4.07;;;31.40;42.10;;;;;;4970384;28;20039;-70
2021/05/31 08:49:06;;;;;;;9.63;3.67;;;31.00;43.40;;;;;;4967485;28;21348;-71
2021/05/31 08:51:33;;;;;;;10.23;3.90;;;30.90;43.20;;;;;;4965962;28;20258;-69
2021/05/31 08:54:00;;;;;;;14.48;4.60;;;30.40;44.50;;;;;;4972830;28;20034;-71
2021/05/31 08:56:26;;;;;;;16.90;3.75;;;30.30;44.30;;;;;;4970445;28;20042;-73
2021/05/31 08:58:51;;;;;;;5.93;3.25;;;29.90;45.20;;;;;;4967154;28;20096;-71
2021/05/31 09:01:23;;;;;;;43.85;8.45;;;29.60;45.70;;;;;;4965147;28;20062;-69
2021/05/31 09:03:49;;;;;;;74.68;8.02;;;29.20;45.70;;;;;;4967671;28;20133;-73
2021/05/31 09:06:15;;;;;;;58.15;9.60;;;28.70;45.80;;;;;;4972667;28;20149;-72
2021/05/31 09:08:54;;;;;;;16.48;5.07;;;28.20;47.20;;;;;;4972180;28;20035;-72
2021/05/31 09:11:22;;;;;;;5.35;2.50;;;27.90;47.60;;;;;;4971126;28;20126;-72
2021/05/31 09:13:47;;;;;;;10.30;4.45;;;27.50;47.80;;;;;;4970722;28;20043;-73
2021/05/31 09:16:22;;;;;;;20.95;4.25;;;27.50;49.50;;;;;;4970102;28;20106;-70
2021/05/31 09:18:56;;;;;;;10.20;2.38;;;27.40;47.10;;;;;;4971882;28;20414;-70
2021/05/31 09:21:33;;;;;;;9.90;2.55;;;27.10;47.70;;;;;;4975118;28;20030;-70
2021/05/31 09:24:03;;;;;;;5.72;1.52;;;27.00;47.50;;;;;;4986250;28;20049;-71
2021/05/31 09:26:30;;;;;;;3.88;1.60;;;26.80;46.60;;;;;;4967710;28;20565;-69
2021/05/31 09:29:00;;;;;;;8.98;2.65;;;26.60;47.00;;;;;;4973802;28;20404;-69
2021/05/31 09:31:28;;;;;;;5.22;2.20;;;26.60;48.20;;;;;;4972776;28;20085;-71
2021/05/31 09:34:12;;;;;;;4.18;1.60;;;26.60;48.50;;;;;;4970298;28;20044;-69
2021/05/31 09:36:53;;;;;;;5.53;2.47;;;26.30;46.80;;;;;;4967114;28;20354;-72
2021/05/31 09:39:27;;;;;;;17.17;3.90;;;26.10;47.30;;;;;;4971186;28;20766;-72
2021/05/31 09:42:18;;;;;;;9.50;1.52;;;26.10;47.90;;;;;;4972909;28;20493;-72
2021/05/31 09:44:45;;;;;;;7.82;2.35;;;26.10;46.30;;;;;;4969664;28;20340;-72
2021/05/31 09:47:11;;;;;;;3.65;1.42;;;26.20;47.30;;;;;;4970957;28;20143;-70
2021/05/31 09:49:38;;;;;;;4.55;1.52;;;26.20;47.40;;;;;;4967835;28;20115;-68
2021/05/31 09:52:04;;;;;;;5.18;1.40;;;26.20;46.30;;;;;;4975200;28;20125;-72
2021/05/31 09:54:41;;;;;;;3.90;1.38;;;26.30;44.50;;;;;;4969994;28;20096;-71
2021/05/31 09:57:21;;;;;;;6.35;1.45;;;26.20;46.60;;;;;;4970912;28;20031;-71
2021/05/31 09:59:50;;;;;;;5.57;1.67;;;26.40;46.70;;;;;;4968410;28;20392;-70
2021/05/31 10:02:22;;;;;;;4.05;1.67;;;26.20;46.90;;;;;;4968806;28;20045;-70
2021/05/31 10:10:17;;;;;;;4.85;1.58;;;26.30;47.40;;;;;;4956563;28;20407;-71
2021/05/31 10:12:43;;;;;;;3.78;1.40;;;26.20;46.50;;;;;;4973350;28;20038;-70
2021/05/31 10:15:11;;;;;;;3.65;1.23;;;26.20;46.50;;;;;;4974089;28;20696;-71
2021/05/31 10:17:38;;;;;;;5.38;1.27;;;26.00;46.20;;;;;;4966045;28;20027;-71
2021/05/31 10:20:05;;;;;;;4.97;1.30;;;26.00;46.20;;;;;;4979019;28;20038;-72
2021/05/31 10:22:34;;;;;;;3.53;1.42;;;25.70;45.20;;;;;;4968449;28;20038;-70
2021/05/31 10:25:03;;;;;;;2.58;1.27;;;25.60;45.10;;;;;;4985040;28;20796;-70
2021/05/31 10:27:30;;;;;;;23.13;1.20;;;25.40;46.40;;;;;;4967630;28;20053;-69
2021/05/31 10:29:58;;;;;;;3.42;0.88;;;25.50;46.30;;;;;;4970110;28;20408;-71
2021/05/31 10:32:24;;;;;;;6.03;1.38;;;25.50;45.30;;;;;;4972397;28;20062;-73
2021/05/31 10:34:52;;;;;;;2.72;1.10;;;25.60;44.60;;;;;;4969025;28;20069;-71
2021/05/31 10:37:21;;;;;;;3.58;1.08;;;25.60;44.50;;;;;;4965144;28;20026;-71
2021/05/31 10:40:01;;;;;;;4.03;1.38;;;25.60;44.40;;;;;;4970741;28;20069;-73
2021/05/31 10:42:41;;;;;;;2.65;1.30;;;25.50;43.40;;;;;;4966804;28;20895;-71
2021/05/31 10:45:16;;;;;;;;;;;25.40;43.90;;;;;;4968225;28;20046;-70
2021/05/31 10:47:41;;;;;;;3.90;0.90;;;25.50;42.80;;;;;;4968927;28;19937;-70
2021/05/31 10:50:15;;;;;;;1.70;0.77;;;25.60;44.40;;;;;;4969727;28;20491;-72
2021/05/31 10:52:50;;;;;;;2.60;0.93;;;25.60;43.70;;;;;;4971204;28;20507;-69
2021/05/31 10:55:16;;;;;;;6.63;1.00;;;25.40;43.60;;;;;;4974654;28;20030;-70
2021/05/31 10:57:42;;;;;;;6.38;1.35;;;25.40;45.20;;;;;;4972975;28;20093;-69
2021/05/31 11:00:08;;;;;;;3.65;1.10;;;25.50;44.50;;;;;;4965686;28;20043;-71
2021/05/31 11:02:34;;;;;;;10.85;1.70;;;25.60;43.10;;;;;;4968951;28;20081;-70
2021/05/31 11:05:08;;;;;;;1.73;1.00;;;25.60;44.80;;;;;;4965872;28;20467;-71
2021/05/31 11:07:33;;;;;;;3.42;1.05;;;25.50;44.00;;;;;;4972475;28;20538;-70
2021/05/31 11:09:59;;;;;;;3.50;1.40;;;25.30;45.30;;;;;;4967779;28;20089;-72
2021/05/31 11:12:29;;;;;;;4.07;1.10;;;25.10;45.60;;;;;;4972161;28;20419;-69
2021/05/31 11:15:09;;;;;;;4.05;1.25;;;25.10;46.00;;;;;;4969876;28;20034;-70
2021/05/31 11:17:47;;;;;;;6.22;1.00;;;25.20;46.20;;;;;;4969746;28;20057;-71
2021/05/31 11:20:13;;;;;;;4.13;1.17;;;25.20;46.70;;;;;;4970237;28;20030;-69
2021/05/31 11:22:39;;;;;;;1.65;0.90;;;25.30;46.80;;;;;;4970901;28;20038;-71
2021/05/31 11:25:08;;;;;;;2.22;0.90;;;25.20;45.80;;;;;;4977109;28;20040;-72
2021/05/31 11:27:36;;;;;;;4.20;1.35;;;25.30;47.40;;;;;;4970409;28;20483;-70
2021/05/31 11:30:11;;;;;;;3.97;1.70;;;25.30;46.40;;;;;;4966413;28;20034;-69
2021/05/31 11:32:37;;;;;;;2.83;1.35;;;25.40;46.70;;;;;;4967919;28;20498;-71
2021/05/31 11:35:06;;;;;;;2.22;1.05;;;25.30;46.80;;;;;;4972401;28;20038;-70
2021/05/31 11:37:33;;;;;;;3.88;1.05;;;25.30;47.10;;;;;;4973240;28;20133;-71
2021/05/31 11:40:00;;;;;;;4.47;1.15;;;25.40;47.70;;;;;;4967748;28;20047;-70
2021/05/31 11:42:26;;;;;;;4.28;1.55;;;25.30;47.90;;;;;;4971059;28;20042;-70
2021/05/31 11:44:58;;;;;;;11.52;2.15;;;25.50;48.30;;;;;;4972666;28;20607;-70
2021/05/31 11:47:26;;;;;;;4.50;1.70;;;25.60;48.60;;;;;;4973434;28;20427;-70
2021/05/31 11:49:52;;;;;;;8.05;2.42;;;25.70;50.80;;;;;;4968706;28;20035;-69
2021/05/31 11:52:19;;;;;;;3.20;1.70;;;25.60;50.80;;;;;;4970583;28;20181;-71
2021/05/31 11:54:45;;;;;;;8.75;1.80;;;25.70;50.90;;;;;;4971603;28;20046;-70
2021/05/31 11:57:20;;;;;;;7.25;2.58;;;25.80;50.00;;;;;;4968511;28;20027;-70
2021/05/31 11:59:46;;;;;;;4.63;2.60;;;25.70;49.40;;;;;;4966271;28;20485;-71
2021/05/31 12:02:15;;;;;;;2.42;1.73;;;25.70;50.20;;;;;;4972477;28;20022;-72
2021/05/31 12:04:45;;;;;;;4.10;1.83;;;25.60;50.50;;;;;;4969219;28;20030;-70
2021/05/31 12:07:13;;;;;;;4.15;1.85;;;25.50;51.60;;;;;;4968242;28;20043;-71
2021/05/31 12:09:42;;;;;;;6.70;2.38;;;25.60;51.80;;;;;;4972126;28;20135;-72
2021/05/31 12:12:09;;;;;;;7.13;1.83;;;25.60;50.60;;;;;;4967708;28;20091;-71
2021/05/31 12:14:47;;;;;;;6.28;1.85;;;25.50;51.00;;;;;;4962948;28;20431;-71
2021/05/31 12:17:15;;;;;;;4.07;2.22;;;25.30;51.10;;;;;;4967395;28;20043;-69
2021/05/31 12:19:42;;;;;;;5.57;1.65;;;25.40;50.90;;;;;;4964730;28;20031;-70
2021/05/31 12:22:09;;;;;;;5.60;2.42;;;25.40;51.50;;;;;;4970426;28;20031;-73
2021/05/31 12:24:40;;;;;;;5.95;2.22;;;25.20;52.40;;;;;;4970569;28;20039;-68
2021/05/31 12:27:07;;;;;;;3.33;1.42;;;25.20;51.10;;;;;;4969893;28;20039;-72
2021/05/31 12:29:38;;;;;;;3.67;1.80;;;25.30;51.60;;;;;;4984097;28;20388;-73
2021/05/31 12:32:10;;;;;;;2.80;1.63;;;25.00;50.90;;;;;;4966760;28;20039;-71
2021/05/31 12:34:37;;;;;;;5.80;1.80;;;25.10;50.80;;;;;;4963391;28;20043;-71
2021/05/31 12:37:06;;;;;;;2.85;1.30;;;25.00;50.80;;;;;;4971111;28;20399;-71
2021/05/31 12:39:31;;;;;;;3.28;1.52;;;24.90;51.50;;;;;;4972377;28;20121;-70
2021/05/31 12:42:04;;;;;;;4.00;1.38;;;24.80;51.50;;;;;;4973074;28;20129;-69
2021/05/31 12:44:30;;;;;;;2.72;1.63;;;24.80;51.00;;;;;;4969734;28;20480;-71
2021/05/31 12:47:11;;;;;;;7.78;2.10;;;24.80;52.20;;;;;;4973482;28;20039;-72
2021/05/31 12:49:51;;;;;;;6.45;1.85;;;24.80;53.50;;;;;;4971662;28;20031;-72
2021/05/31 12:52:25;;;;;;;2.30;1.60;;;24.90;54.30;;;;;;4972044;28;20675;-69
2021/05/31 12:55:15;;;;;;;7.20;1.60;;;24.90;55.30;;;;;;4974318;28;20551;-68
2021/05/31 12:57:45;;;;;;;;;;;24.90;53.60;;;;;;4976601;28;20186;-71
2021/05/31 13:00:15;;;;;;;5.72;1.67;;;24.80;51.20;;;;;;4975535;28;19918;-69
2021/05/31 13:02:47;;;;;;;;;;;24.70;53.60;;;;;;4972325;28;20053;-68
2021/05/31 13:05:14;;;;;;;9.65;2.17;;;24.80;53.10;;;;;;4970865;28;19986;-70